Keith, Illinois
Current Conditions -  °F | °C
As of 4:15 PM on Friday 31 Oct 2014 (Local Time) from KFOA Reporting Station
Clear Clear  
Wind Chill:   Ceiling: Unl
Heat Index:   Visibility: 10mi
Dew Point: -4°   Wind: 21mph
Humidity: 50%   Direction: 340°NNW
Pressure: 30.21"   Gusts: 26mph
Location:  38.5816°N, 88.4678°W
Report Text: KFOA 312115Z AUTO 34018G23KT 10SM CLR 06/M03 A3021 RMK AO2 T00641035
Loading
Personal Weather Stations






























Interactive Weather Map
Tropical Storm Tracking
New forecast layout! Learn more

10-Day Weather Forecast

Advertisements
Track Severe Weather on mobile